Time,TemperatureF,DewpointF,PressureIn,WindDirection,WindDirectionDegrees,WindSpeedMPH,WindSpeedGustMPH,Humidity,HourlyPrecipIn,Conditions,Clouds,dailyrainin,SoftwareType,DateUTC
2013-02-24 00:09:00,55.8,51.0,29.91,NNE,19,4.0,7.0,84,0.03,,,0.13,weatherlink.com 1.10,2013-02-24 06:09:00,
2013-02-24 00:24:00,55.4,50.0,29.91,NE,34,2.0,6.0,83,0.03,,,0.14,weatherlink.com 1.10,2013-02-24 06:24:00,
2013-02-24 00:39:00,55.1,49.0,29.91,NNE,22,2.0,8.0,81,0.02,,,0.14,weatherlink.com 1.10,2013-02-24 06:39:00,
2013-02-24 00:54:00,54.8,49.0,29.91,NNE,32,3.0,7.0,81,0.03,,,0.15,weatherlink.com 1.10,2013-02-24 06:54:00,
2013-02-24 01:09:00,54.5,48.0,29.91,NE,35,2.0,5.0,80,0.03,,,0.16,weatherlink.com 1.10,2013-02-24 07:09:00,
2013-02-24 01:24:00,53.9,48.0,29.91,NNE,19,2.0,4.0,81,0.02,,,0.16,weatherlink.com 1.10,2013-02-24 07:24:00,
2013-02-24 01:39:00,53.4,48.0,29.91,NNE,19,1.0,5.0,82,0.03,,,0.17,weatherlink.com 1.10,2013-02-24 07:39:00,
2013-02-24 01:54:00,53.0,48.0,29.91,NNE,20,0.0,6.0,83,0.02,,,0.17,weatherlink.com 1.10,2013-02-24 07:54:00,
2013-02-24 02:09:00,52.7,48.0,29.91,NE,37,4.0,5.0,83,0.02,,,0.18,weatherlink.com 1.10,2013-02-24 08:09:00,
2013-02-24 02:24:00,52.4,47.0,29.90,NNE,31,5.0,6.0,83,0.02,,,0.18,weatherlink.com 1.10,2013-02-24 08:24:00,
2013-02-24 02:39:00,52.0,47.0,29.91,NNE,32,0.0,5.0,83,0.02,,,0.19,weatherlink.com 1.10,2013-02-24 08:39:00,
2013-02-24 02:54:00,51.4,47.0,29.91,NNE,32,0.0,0.0,84,0.02,,,0.19,weatherlink.com 1.10,2013-02-24 08:54:00,
2013-02-24 03:09:00,50.9,47.0,29.90,NNE,32,1.0,4.0,86,0.02,,,0.20,weatherlink.com 1.10,2013-02-24 09:09:00,
2013-02-24 03:24:00,50.6,47.0,29.90,North,11,3.0,8.0,87,0.03,,,0.21,weatherlink.com 1.10,2013-02-24 09:24:00,
2013-02-24 03:39:00,50.4,47.0,29.89,NNE,27,5.0,9.0,87,0.02,,,0.21,weatherlink.com 1.10,2013-02-24 09:39:00,
2013-02-24 03:54:00,50.1,47.0,29.90,NNE,26,6.0,9.0,88,0.02,,,0.22,weatherlink.com 1.10,2013-02-24 09:54:00,
2013-02-24 04:09:00,49.9,47.0,29.90,NNE,21,8.0,10.0,88,0.02,,,0.22,weatherlink.com 1.10,2013-02-24 10:09:00,
2013-02-24 04:24:00,49.6,47.0,29.91,North,355,4.0,10.0,89,0.02,,,0.23,weatherlink.com 1.10,2013-02-24 10:24:00,
2013-02-24 04:39:00,49.3,47.0,29.91,NNE,29,10.0,10.0,90,0.02,,,0.23,weatherlink.com 1.10,2013-02-24 10:39:00,
2013-02-24 04:54:00,49.1,47.0,29.90,NNE,12,3.0,12.0,91,0.02,,,0.24,weatherlink.com 1.10,2013-02-24 10:54:00,
2013-02-24 05:09:00,49.0,47.0,29.91,NNE,26,9.0,10.0,91,0.02,,,0.25,weatherlink.com 1.10,2013-02-24 11:09:00,
2013-02-24 05:24:00,48.8,47.0,29.91,North,5,6.0,12.0,92,0.02,,,0.25,weatherlink.com 1.10,2013-02-24 11:24:00,
2013-02-24 05:39:00,48.7,47.0,29.91,NNE,22,5.0,11.0,92,0.03,,,0.26,weatherlink.com 1.10,2013-02-24 11:39:00,
2013-02-24 05:54:00,48.4,47.0,29.91,NNE,24,6.0,12.0,93,0.02,,,0.26,weatherlink.com 1.10,2013-02-24 11:54:00,
2013-02-24 06:09:00,48.1,46.0,29.91,NNE,22,9.0,13.0,93,0.02,,,0.27,weatherlink.com 1.10,2013-02-24 12:09:00,
2013-02-24 06:24:00,48.0,46.0,29.91,NNE,16,6.0,13.0,94,0.02,,,0.00,weatherlink.com 1.10,2013-02-24 12:24:00,
2013-02-24 06:39:00,47.9,46.0,29.92,NNE,16,6.0,13.0,94,0.01,,,0.00,weatherlink.com 1.10,2013-02-24 12:39:00,
2013-02-24 06:54:00,48.1,47.0,29.92,NE,34,7.0,10.0,94,0.02,,,0.01,weatherlink.com 1.10,2013-02-24 12:54:00,
2013-02-24 07:09:00,48.6,47.0,29.92,NNE,24,6.0,10.0,93,0.01,,,0.01,weatherlink.com 1.10,2013-02-24 13:09:00,
2013-02-24 07:24:00,49.1,47.0,29.92,NNE,13,6.0,10.0,92,0.02,,,0.02,weatherlink.com 1.10,2013-02-24 13:24:00,
2013-02-24 07:40:00,50.1,48.0,29.92,NNE,17,4.0,10.0,91,0.02,,,0.02,weatherlink.com 1.10,2013-02-24 13:40:00,
2013-02-24 07:55:00,51.3,48.0,29.93,NE,35,4.0,10.0,89,0.02,,,0.03,weatherlink.com 1.10,2013-02-24 13:55:00,
2013-02-24 08:10:00,52.3,48.0,29.93,NE,44,3.0,8.0,86,0.03,,,0.04,weatherlink.com 1.10,2013-02-24 14:10:00,
2013-02-24 08:25:00,53.6,49.0,29.93,NNE,28,3.0,8.0,85,0.02,,,0.04,weatherlink.com 1.10,2013-02-24 14:25:00,
2013-02-24 08:40:00,55.1,50.0,29.93,NE,47,6.0,10.0,84,0.02,,,0.04,weatherlink.com 1.10,2013-02-24 14:40:00,
2013-02-24 08:55:00,56.1,51.0,29.94,East,94,5.0,5.0,82,0.02,,,0.05,weatherlink.com 1.10,2013-02-24 14:55:00,
2013-02-24 09:10:00,56.2,51.0,29.94,East,92,3.0,6.0,82,0.02,,,0.06,weatherlink.com 1.10,2013-02-24 15:10:00,
2013-02-24 09:25:00,56.6,52.0,29.95,East,97,3.0,8.0,83,0.02,,,0.06,weatherlink.com 1.10,2013-02-24 15:25:00,
2013-02-24 09:40:00,56.4,52.0,29.95,ESE,104,2.0,8.0,85,0.03,,,0.07,weatherlink.com 1.10,2013-02-24 15:40:00,
2013-02-24 09:55:00,56.2,52.0,29.95,ESE,106,4.0,5.0,85,0.02,,,0.07,weatherlink.com 1.10,2013-02-24 15:55:00,
2013-02-24 10:10:00,56.0,52.0,29.95,ESE,105,2.0,6.0,86,0.02,,,0.08,weatherlink.com 1.10,2013-02-24 16:10:00,
2013-02-24 10:25:00,56.2,52.0,29.94,ESE,121,4.0,8.0,87,0.03,,,0.09,weatherlink.com 1.10,2013-02-24 16:25:00,
2013-02-24 10:40:00,56.6,53.0,29.94,SE,127,2.0,5.0,88,0.02,,,0.09,weatherlink.com 1.10,2013-02-24 16:40:00,
2013-02-24 10:55:00,57.2,54.0,29.94,SE,134,6.0,7.0,88,0.03,,,0.10,weatherlink.com 1.10,2013-02-24 16:55:00,
2013-02-24 11:10:00,56.8,53.0,29.94,SE,146,7.0,10.0,87,0.03,,,0.11,weatherlink.com 1.10,2013-02-24 17:10:00,
2013-02-24 11:25:00,57.0,54.0,29.93,SSE,163,8.0,10.0,88,0.02,,,0.11,weatherlink.com 1.10,2013-02-24 17:25:00,
2013-02-24 11:40:00,57.0,54.0,29.93,SSE,155,5.0,10.0,90,0.03,,,0.12,weatherlink.com 1.10,2013-02-24 17:40:00,
2013-02-24 11:55:00,57.1,54.0,29.93,SSE,152,7.0,8.0,90,0.03,,,0.13,weatherlink.com 1.10,2013-02-24 17:55:00,
2013-02-24 12:10:00,57.2,54.0,29.93,SSE,154,7.0,9.0,90,0.02,,,0.13,weatherlink.com 1.10,2013-02-24 18:10:00,
2013-02-24 12:25:00,57.2,55.0,29.92,SSE,166,7.0,8.0,91,0.03,,,0.14,weatherlink.com 1.10,2013-02-24 18:25:00,
2013-02-24 12:40:00,57.2,55.0,29.91,South,175,6.0,8.0,91,0.03,,,0.15,weatherlink.com 1.10,2013-02-24 18:40:00,
2013-02-24 12:55:00,57.2,55.0,29.91,SSE,165,4.0,9.0,92,0.02,,,0.15,weatherlink.com 1.10,2013-02-24 18:55:00,
2013-02-24 13:10:00,57.1,55.0,29.90,SSE,156,7.0,8.0,91,0.03,,,0.16,weatherlink.com 1.10,2013-02-24 19:10:00,
2013-02-24 13:25:00,57.3,55.0,29.89,SE,136,5.0,7.0,91,0.03,,,0.17,weatherlink.com 1.10,2013-02-24 19:25:00,
2013-02-24 13:40:00,57.3,55.0,29.89,SSE,159,4.0,5.0,92,0.02,,,0.17,weatherlink.com 1.10,2013-02-24 19:40:00,
2013-02-24 13:55:00,57.6,55.0,29.89,ESE,107,0.0,5.0,92,0.02,,,0.18,weatherlink.com 1.10,2013-02-24 19:55:00,
2013-02-24 14:10:00,57.7,55.0,29.89,East,89,0.0,2.0,92,0.02,,,0.18,weatherlink.com 1.10,2013-02-24 20:10:00,
2013-02-24 14:25:00,57.9,55.0,29.88,ESE,104,0.0,3.0,91,0.02,,,0.19,weatherlink.com 1.10,2013-02-24 20:25:00,
2013-02-24 14:40:00,58.4,56.0,29.87,ESE,109,2.0,3.0,92,0.02,,,0.19,weatherlink.com 1.10,2013-02-24 20:40:00,
2013-02-24 14:55:00,58.6,56.0,29.87,ESE,110,0.0,3.0,92,0.02,,,0.20,weatherlink.com 1.10,2013-02-24 20:55:00,
2013-02-24 15:10:00,59.0,56.0,29.86,ESE,121,2.0,4.0,91,0.02,,,0.20,weatherlink.com 1.10,2013-02-24 21:10:00,
2013-02-24 15:25:00,59.2,57.0,29.85,East,96,2.0,5.0,91,0.02,,,0.21,weatherlink.com 1.10,2013-02-24 21:25:00,
2013-02-24 15:40:00,59.5,57.0,29.85,ESE,104,0.0,3.0,91,0.02,,,0.21,weatherlink.com 1.10,2013-02-24 21:40:00,
2013-02-24 15:55:00,59.5,57.0,29.85,ESE,116,0.0,4.0,90,0.01,,,0.21,weatherlink.com 1.10,2013-02-24 21:55:00,
2013-02-24 16:10:00,59.6,57.0,29.85,East,96,2.0,2.0,91,0.02,,,0.22,weatherlink.com 1.10,2013-02-24 22:10:00,
2013-02-24 16:25:00,59.7,57.0,29.84,East,93,2.0,5.0,91,0.01,,,0.22,weatherlink.com 1.10,2013-02-24 22:25:00,
2013-02-24 16:40:00,59.8,57.0,29.84,ESE,123,1.0,7.0,91,0.02,,,0.23,weatherlink.com 1.10,2013-02-24 22:40:00,
2013-02-24 16:56:00,60.3,57.0,29.84,ESE,118,7.0,8.0,89,0.02,,,0.23,weatherlink.com 1.10,2013-02-24 22:56:00,
2013-02-24 17:11:00,60.5,57.0,29.83,ESE,109,3.0,11.0,88,0.02,,,0.24,weatherlink.com 1.10,2013-02-24 23:11:00,
2013-02-24 17:26:00,60.3,57.0,29.83,ESE,108,5.0,10.0,89,0.02,,,0.24,weatherlink.com 1.10,2013-02-24 23:26:00,
2013-02-24 17:41:00,60.4,57.0,29.84,ESE,111,8.0,12.0,88,0.01,,,0.24,weatherlink.com 1.10,2013-02-24 23:41:00,
2013-02-24 17:56:00,61.0,56.0,29.83,ESE,104,7.0,12.0,82,0.02,,,0.25,weatherlink.com 1.10,2013-02-24 23:56:00,
2013-02-24 18:11:00,61.2,55.0,29.83,ESE,111,5.0,11.0,81,0.01,,,0.25,weatherlink.com 1.10,2013-02-25 00:11:00,
2013-02-24 18:26:00,61.1,55.0,29.85,ESE,123,3.0,9.0,81,0.01,,,0.25,weatherlink.com 1.10,2013-02-25 00:26:00,
2013-02-24 18:41:00,60.7,56.0,29.82,ENE,73,4.0,13.0,84,0.02,,,0.26,weatherlink.com 1.10,2013-02-25 00:41:00,
2013-02-24 18:56:00,59.4,56.0,29.83,ESE,107,13.0,17.0,89,0.01,,,0.26,weatherlink.com 1.10,2013-02-25 00:56:00,
2013-02-24 19:11:00,59.4,56.0,29.82,East,92,6.0,9.0,89,0.01,,,0.26,weatherlink.com 1.10,2013-02-25 01:11:00,
2013-02-24 19:26:00,59.8,56.0,29.81,ENE,74,7.0,9.0,88,0.02,,,0.27,weatherlink.com 1.10,2013-02-25 01:26:00,
2013-02-24 19:41:00,60.2,56.0,29.81,East,94,7.0,10.0,87,0.01,,,0.27,weatherlink.com 1.10,2013-02-25 01:41:00,
2013-02-24 19:56:00,60.5,57.0,29.81,East,94,5.0,11.0,87,0.01,,,0.27,weatherlink.com 1.10,2013-02-25 01:56:00,
2013-02-24 20:11:00,60.1,57.0,29.82,ESE,120,7.0,12.0,88,0.02,,,0.28,weatherlink.com 1.10,2013-02-25 02:11:00,
2013-02-24 20:26:00,59.8,57.0,29.81,East,96,6.0,10.0,90,0.01,,,0.28,weatherlink.com 1.10,2013-02-25 02:26:00,
2013-02-24 20:41:00,59.9,57.0,29.79,East,85,7.0,13.0,90,0.01,,,0.28,weatherlink.com 1.10,2013-02-25 02:41:00,
2013-02-24 20:56:00,59.9,57.0,29.79,East,83,7.0,11.0,91,0.01,,,0.28,weatherlink.com 1.10,2013-02-25 02:56:00,
2013-02-24 21:11:00,59.9,57.0,29.81,East,101,7.0,12.0,91,0.01,,,0.29,weatherlink.com 1.10,2013-02-25 03:11:00,
2013-02-24 21:26:00,59.6,57.0,29.82,ESE,123,8.0,11.0,92,0.01,,,0.29,weatherlink.com 1.10,2013-02-25 03:26:00,
2013-02-24 21:41:00,59.3,58.0,29.78,East,80,9.0,13.0,94,0.01,,,0.29,weatherlink.com 1.10,2013-02-25 03:41:00,
2013-02-24 21:56:00,59.4,58.0,29.79,North,360,4.0,11.0,95,0.02,,,0.30,weatherlink.com 1.10,2013-02-25 03:56:00,
2013-02-24 22:11:00,59.7,58.0,29.81,East,92,10.0,11.0,95,0.01,,,0.30,weatherlink.com 1.10,2013-02-25 04:11:00,
2013-02-24 22:26:00,59.9,59.0,29.80,NE,55,7.0,13.0,95,0.01,,,0.30,weatherlink.com 1.10,2013-02-25 04:26:00,
2013-02-24 22:41:00,60.0,59.0,29.79,East,84,10.0,11.0,95,0.01,,,0.30,weatherlink.com 1.10,2013-02-25 04:41:00,
2013-02-24 22:56:00,59.7,59.0,29.77,East,88,5.0,14.0,96,0.01,,,0.31,weatherlink.com 1.10,2013-02-25 04:56:00,
2013-02-24 23:11:00,59.7,59.0,29.78,ESE,106,5.0,11.0,96,0.01,,,0.31,weatherlink.com 1.10,2013-02-25 05:11:00,
2013-02-24 23:26:00,59.8,59.0,29.77,ENE,74,4.0,8.0,96,0.01,,,0.31,weatherlink.com 1.10,2013-02-25 05:26:00,
2013-02-24 23:41:00,59.9,59.0,29.77,East,89,3.0,7.0,96,0.02,,,0.32,weatherlink.com 1.10,2013-02-25 05:41:00,
2013-02-24 23:56:00,60.0,59.0,29.75,NE,53,7.0,11.0,97,0.01,,,0.32,weatherlink.com 1.10,2013-02-25 05:56:00,